createdAt,value
2022-12-24T00:02:08.879Z,10.50
2022-12-24T00:07:14.091Z,10.40
2022-12-24T00:12:17.836Z,10.50
2022-12-24T00:17:21.789Z,10.40
2022-12-24T00:22:26.927Z,10.40
2022-12-24T00:27:30.689Z,10.40
2022-12-24T00:32:34.495Z,10.40
2022-12-24T00:37:39.677Z,10.50
2022-12-24T00:42:43.447Z,10.60
2022-12-24T00:47:47.175Z,10.50
2022-12-24T00:52:52.254Z,10.40
2022-12-24T00:57:56.895Z,10.40
2022-12-24T01:03:01.481Z,10.50
2022-12-24T01:08:07.054Z,10.40
2022-12-24T01:13:10.820Z,10.30
2022-12-24T01:18:14.685Z,10.30
2022-12-24T01:23:19.743Z,10.30
2022-12-24T01:28:23.477Z,10.20
2022-12-24T01:33:29.846Z,10.10
2022-12-24T01:38:35.131Z,10.10
2022-12-24T01:43:38.836Z,10.10
2022-12-24T01:48:45.697Z,10.20
2022-12-24T01:53:55.693Z,10.20
2022-12-24T01:59:06.189Z,10.10
2022-12-24T02:04:18.569Z,10.10
2022-12-24T02:09:23.920Z,10.10
2022-12-24T02:14:32.349Z,10.20
2022-12-24T02:20:20.954Z,10.20
2022-12-24T02:25:47.039Z,10.30
2022-12-24T02:30:57.180Z,10.30
2022-12-24T02:36:06.086Z,10.30
2022-12-24T02:41:12.734Z,10.50
2022-12-24T02:46:21.804Z,10.50
2022-12-24T02:51:26.042Z,10.50
2022-12-24T02:56:47.002Z,10.40
2022-12-24T03:02:00.054Z,10.50
2022-12-24T03:07:12.183Z,10.60
2022-12-24T03:12:21.813Z,10.60
2022-12-24T03:17:27.392Z,10.50
2022-12-24T03:22:32.391Z,10.70
2022-12-24T03:27:37.015Z,10.70
2022-12-24T03:32:42.258Z,10.60
2022-12-24T03:37:45.970Z,10.70
2022-12-24T03:42:49.685Z,10.70
2022-12-24T03:47:54.876Z,10.90
2022-12-24T03:52:58.695Z,10.90
2022-12-24T03:58:02.477Z,10.90
2022-12-24T04:03:07.659Z,10.90
2022-12-24T04:08:11.469Z,10.90
2022-12-24T04:13:15.189Z,10.80
2022-12-24T04:18:20.372Z,10.80
2022-12-24T04:23:24.587Z,10.90
2022-12-24T04:28:29.390Z,10.90
2022-12-24T04:33:34.736Z,10.90
2022-12-24T04:38:38.526Z,10.80
2022-12-24T04:43:42.230Z,10.90
2022-12-24T04:48:48.777Z,10.90
2022-12-24T04:53:53.468Z,11.00
2022-12-24T04:58:57.814Z,11.00
2022-12-24T05:04:02.989Z,10.90
2022-12-24T05:09:06.757Z,11.00
2022-12-24T05:14:10.488Z,10.90
2022-12-24T05:19:18.457Z,10.90
2022-12-24T05:24:39.372Z,10.80
2022-12-24T05:29:43.081Z,10.90
2022-12-24T05:34:48.146Z,10.90
2022-12-24T05:39:51.830Z,10.80
2022-12-24T05:44:55.636Z,10.90
2022-12-24T05:50:00.714Z,11.00
2022-12-24T05:55:04.748Z,10.90
2022-12-24T06:00:10.252Z,10.90
2022-12-24T06:05:17.510Z,10.80
2022-12-24T06:10:21.420Z,10.80
2022-12-24T06:15:25.303Z,10.90
2022-12-24T06:20:30.747Z,10.70
2022-12-24T06:25:35.590Z,10.70
2022-12-24T06:30:39.387Z,10.80
2022-12-24T06:35:46.703Z,10.70
2022-12-24T06:40:50.488Z,10.60
2022-12-24T06:45:54.224Z,10.60
2022-12-24T06:50:59.269Z,10.60
2022-12-24T06:56:04.139Z,10.70
2022-12-24T07:01:09.591Z,10.60
2022-12-24T07:06:19.947Z,10.50
2022-12-24T07:11:25.922Z,10.60
2022-12-24T07:16:29.721Z,10.50
2022-12-24T07:21:34.855Z,10.40
2022-12-24T07:26:38.604Z,10.40
2022-12-24T07:31:42.359Z,10.40
2022-12-24T07:36:47.571Z,10.30
2022-12-24T07:41:51.468Z,10.30
2022-12-24T07:46:56.560Z,10.40
2022-12-24T07:52:01.798Z,10.40
2022-12-24T07:57:05.620Z,10.50
2022-12-24T08:02:17.941Z,10.50
2022-12-24T08:07:23.534Z,10.60
2022-12-24T08:12:27.361Z,10.50
2022-12-24T08:17:32.527Z,10.60
2022-12-24T08:22:37.831Z,10.70
2022-12-24T08:27:41.803Z,10.60
2022-12-24T08:32:45.573Z,10.60
2022-12-24T08:37:50.624Z,10.70
2022-12-24T08:42:54.520Z,10.70
2022-12-24T08:48:00.488Z,10.70
2022-12-24T08:53:05.559Z,10.70
2022-12-24T08:58:09.479Z,10.70
2022-12-24T09:03:20.670Z,10.80
2022-12-24T09:08:30.383Z,10.70
2022-12-24T09:13:34.124Z,10.80
2022-12-24T09:18:37.978Z,10.80
2022-12-24T09:23:46.740Z,10.70
2022-12-24T09:28:50.821Z,10.80
2022-12-24T09:33:54.730Z,10.90
2022-12-24T09:38:59.784Z,11.00
2022-12-24T09:44:09.320Z,11.00
2022-12-24T09:49:18.361Z,11.10
2022-12-24T09:54:27.100Z,11.20
2022-12-24T09:59:40.434Z,11.30
2022-12-24T10:04:45.833Z,11.30
2022-12-24T10:10:02.842Z,11.30
2022-12-24T10:15:16.707Z,11.40
2022-12-24T10:20:32.816Z,11.30
2022-12-24T10:25:45.398Z,11.40
2022-12-24T10:30:54.539Z,11.50
2022-12-24T10:35:59.671Z,11.50
2022-12-24T10:41:04.927Z,11.50
2022-12-24T10:46:18.266Z,11.40
2022-12-24T10:51:26.777Z,11.50
2022-12-24T10:56:31.866Z,11.50
2022-12-24T11:01:49.480Z,11.50
2022-12-24T11:06:55.561Z,11.50
2022-12-24T11:12:08.393Z,11.50
2022-12-24T11:17:21.780Z,11.50
2022-12-24T11:22:28.042Z,11.60
2022-12-24T11:27:42.215Z,11.50
2022-12-24T11:32:47.939Z,11.60
2022-12-24T11:38:11.538Z,11.60
2022-12-24T11:43:19.028Z,11.60
2022-12-24T11:48:30.859Z,11.50
2022-12-24T11:53:42.999Z,11.60
2022-12-24T11:58:52.524Z,11.70
2022-12-24T12:03:59.520Z,11.70
2022-12-24T12:09:07.440Z,11.60
2022-12-24T12:14:20.057Z,11.60
2022-12-24T12:19:26.026Z,11.60
2022-12-24T12:24:34.957Z,11.60
2022-12-24T12:29:46.751Z,11.70
2022-12-24T12:35:05.654Z,11.80
2022-12-24T12:40:16.008Z,11.70
2022-12-24T12:45:42.214Z,11.70
2022-12-24T12:50:52.485Z,11.70
2022-12-24T12:56:08.953Z,11.80
2022-12-24T13:01:19.215Z,11.70
2022-12-24T13:07:10.697Z,11.60
2022-12-24T13:12:47.408Z,11.50
2022-12-24T13:18:02.747Z,11.40
2022-12-24T13:23:19.037Z,11.40
2022-12-24T13:28:38.776Z,11.40
2022-12-24T13:33:51.603Z,11.50
2022-12-24T13:38:57.148Z,11.50
2022-12-24T13:44:04.768Z,11.60
2022-12-24T13:49:19.009Z,11.60
2022-12-24T13:54:28.578Z,11.70
2022-12-24T13:59:39.222Z,11.60
2022-12-24T14:04:44.589Z,11.60
2022-12-24T14:09:51.518Z,11.70
2022-12-24T14:14:55.295Z,11.60
2022-12-24T14:20:03.004Z,11.50
2022-12-24T14:25:17.340Z,11.50
2022-12-24T14:30:23.681Z,11.50
2022-12-24T14:35:32.452Z,11.50
2022-12-24T14:40:44.519Z,11.50
2022-12-24T14:45:54.409Z,11.40
2022-12-24T14:51:08.467Z,11.40
2022-12-24T14:56:16.461Z,11.40
2022-12-24T15:01:22.922Z,11.30
2022-12-24T15:06:29.030Z,11.30
2022-12-24T15:11:32.957Z,11.30
2022-12-24T15:16:38.019Z,11.10
2022-12-24T15:21:44.303Z,11.10
2022-12-24T15:26:48.144Z,11.00
2022-12-24T15:31:55.455Z,11.00
2022-12-24T15:37:07.100Z,10.90
2022-12-24T15:42:15.268Z,10.90
2022-12-24T15:47:22.338Z,10.80
2022-12-24T15:52:28.044Z,10.70
2022-12-24T15:57:34.421Z,10.70
2022-12-24T16:02:41.068Z,10.60
2022-12-24T16:08:08.256Z,10.60
2022-12-24T16:13:16.102Z,10.50
2022-12-24T16:18:24.013Z,10.50
2022-12-24T16:23:34.681Z,10.40
2022-12-24T16:28:38.530Z,10.40
2022-12-24T16:33:44.428Z,10.40
2022-12-24T16:39:07.158Z,10.40
2022-12-24T16:44:11.172Z,10.40
2022-12-24T16:49:18.065Z,10.40
2022-12-24T16:54:23.220Z,10.40
2022-12-24T16:59:27.084Z,10.40
2022-12-24T17:04:33.386Z,10.30
2022-12-24T17:09:38.513Z,10.20
2022-12-24T17:14:45.671Z,10.30
2022-12-24T17:19:49.703Z,10.20
2022-12-24T17:24:55.087Z,10.20
2022-12-24T17:29:58.859Z,10.10
2022-12-24T17:35:03.108Z,10.10
2022-12-24T17:40:10.458Z,10.10
2022-12-24T17:45:14.284Z,10.10
2022-12-24T17:50:18.076Z,10.00
2022-12-24T17:55:23.837Z,10.00
2022-12-24T18:00:32.799Z,9.90
2022-12-24T18:05:37.118Z,9.90
2022-12-24T18:10:42.682Z,9.90
2022-12-24T18:15:46.516Z,9.90
2022-12-24T18:20:50.342Z,9.80
2022-12-24T18:25:55.721Z,9.80
2022-12-24T18:31:00.326Z,9.70
2022-12-24T18:36:04.625Z,9.70
2022-12-24T18:41:13.584Z,9.70
2022-12-24T18:46:19.559Z,9.60
2022-12-24T18:51:24.893Z,9.60
2022-12-24T18:56:30.071Z,9.60
2022-12-24T19:01:35.791Z,9.50
2022-12-24T19:06:39.947Z,9.60
2022-12-24T19:11:45.383Z,9.50
2022-12-24T19:16:49.249Z,9.50
2022-12-24T19:21:53.012Z,9.60
2022-12-24T19:26:58.050Z,9.60
2022-12-24T19:32:01.973Z,9.60
2022-12-24T19:37:06.019Z,9.60
2022-12-24T19:42:11.116Z,9.60
2022-12-24T19:47:14.855Z,9.60
2022-12-24T19:52:18.566Z,9.60
2022-12-24T19:57:23.851Z,9.50
2022-12-24T20:02:27.768Z,9.60
2022-12-24T20:07:31.750Z,9.60
2022-12-24T20:12:36.826Z,9.60
2022-12-24T20:17:40.564Z,9.50
2022-12-24T20:22:44.253Z,9.60
2022-12-24T20:27:51.446Z,9.60
2022-12-24T20:32:55.213Z,9.60
2022-12-24T20:37:59.420Z,9.50
2022-12-24T20:43:04.956Z,9.50
2022-12-24T20:48:08.974Z,9.50
2022-12-24T20:53:12.883Z,9.60
2022-12-24T20:58:19.067Z,9.50
2022-12-24T21:03:22.771Z,9.50
2022-12-24T21:08:26.592Z,9.60
2022-12-24T21:13:32.007Z,9.60
2022-12-24T21:18:36.053Z,9.60
2022-12-24T21:23:39.707Z,9.60
2022-12-24T21:28:45.527Z,9.50
2022-12-24T21:33:49.568Z,9.60
2022-12-24T21:38:54.485Z,9.50
2022-12-24T21:44:02.010Z,9.50
2022-12-24T21:49:23.234Z,9.50
2022-12-24T21:54:31.569Z,9.60
2022-12-24T21:59:36.762Z,9.40
2022-12-24T22:04:40.937Z,9.50
2022-12-24T22:10:02.160Z,9.40
2022-12-24T22:15:09.015Z,9.40
2022-12-24T22:20:13.194Z,9.40
2022-12-24T22:25:17.366Z,9.30
2022-12-24T22:30:22.760Z,9.30
2022-12-24T22:35:26.625Z,9.40
2022-12-24T22:40:30.580Z,9.30
2022-12-24T22:45:35.842Z,9.40
2022-12-24T22:50:41.777Z,9.40
2022-12-24T22:55:45.729Z,9.40
2022-12-24T23:00:51.068Z,9.40
2022-12-24T23:05:58.901Z,9.40
2022-12-24T23:11:07.583Z,9.50
2022-12-24T23:16:12.714Z,9.50
2022-12-24T23:21:16.527Z,9.60
2022-12-24T23:26:22.789Z,9.50
2022-12-24T23:31:28.081Z,9.50
2022-12-24T23:36:32.231Z,9.60
2022-12-24T23:41:35.968Z,9.60
2022-12-24T23:46:41.329Z,9.60
2022-12-24T23:51:45.109Z,9.70
2022-12-24T23:56:48.858Z,9.70
